createdAt,value
2022-09-20T00:00:47.083Z,5.70
2022-09-20T00:03:13.814Z,5.78
2022-09-20T00:05:41.030Z,7.53
2022-09-20T00:08:08.906Z,6.00
2022-09-20T00:10:39.324Z,5.43
2022-09-20T00:13:06.661Z,7.28
2022-09-20T00:15:33.223Z,5.75
2022-09-20T00:17:59.748Z,5.68
2022-09-20T00:20:26.455Z,5.78
2022-09-20T00:22:52.815Z,6.30
2022-09-20T00:25:19.934Z,6.85
2022-09-20T00:27:46.179Z,4.60
2022-09-20T00:30:13.178Z,5.60
2022-09-20T00:32:40.026Z,4.70
2022-09-20T00:35:10.864Z,5.10
2022-09-20T00:37:38.622Z,4.38
2022-09-20T00:40:06.136Z,4.63
2022-09-20T00:42:32.866Z,5.30
2022-09-20T00:45:04.707Z,4.53
2022-09-20T00:47:33.999Z,4.13
2022-09-20T00:50:07.318Z,5.15
2022-09-20T00:52:33.947Z,5.78
2022-09-20T00:55:00.616Z,5.35
2022-09-20T00:57:27.135Z,5.93
2022-09-20T00:59:53.932Z,5.93
2022-09-20T01:02:23.185Z,6.95
2022-09-20T01:04:49.948Z,6.25
2022-09-20T01:07:18.025Z,6.72
2022-09-20T01:09:44.327Z,6.57
2022-09-20T01:12:14.980Z,6.47
2022-09-20T01:14:42.610Z,7.18
2022-09-20T01:17:09.189Z,5.55
2022-09-20T01:19:35.750Z,6.07
2022-09-20T01:22:04.219Z,5.15
2022-09-20T01:24:38.468Z,4.93
2022-09-20T01:27:10.572Z,5.07
2022-09-20T01:29:55.472Z,4.97
2022-09-20T01:32:23.846Z,4.30
2022-09-20T01:34:55.008Z,5.82
2022-09-20T01:37:21.258Z,4.82
2022-09-20T01:40:08.955Z,4.28
2022-09-20T01:42:43.462Z,4.70
2022-09-20T01:45:28.721Z,5.72
2022-09-20T01:47:55.030Z,5.15
2022-09-20T01:50:40.134Z,4.72
2022-09-20T01:53:24.604Z,4.38
2022-09-20T01:56:09.598Z,5.60
2022-09-20T01:59:12.765Z,4.07
2022-09-20T02:01:43.602Z,4.07
2022-09-20T02:04:17.411Z,4.13
2022-09-20T02:06:49.541Z,4.22
2022-09-20T02:09:20.321Z,4.25
2022-09-20T02:12:05.530Z,2.95
2022-09-20T02:14:50.289Z,3.95
2022-09-20T02:17:27.800Z,4.57
2022-09-20T02:20:23.272Z,4.50
2022-09-20T02:23:07.627Z,3.90
2022-09-20T02:25:56.729Z,4.15
2022-09-20T02:28:31.754Z,4.18
2022-09-20T02:31:06.993Z,4.40
2022-09-20T02:35:59.378Z,3.17
2022-09-20T02:38:34.405Z,3.90
2022-09-20T02:41:09.569Z,4.53
2022-09-20T02:43:40.626Z,3.45
2022-09-20T02:46:17.081Z,4.30
2022-09-20T02:49:02.152Z,3.65
2022-09-20T02:51:33.128Z,4.20
2022-09-20T02:54:25.467Z,3.33
2022-09-20T02:57:00.158Z,3.95
2022-09-20T02:59:31.334Z,3.88
2022-09-20T03:02:22.488Z,5.18
2022-09-20T03:04:48.915Z,4.05
2022-09-20T03:07:18.244Z,4.65
2022-09-20T03:09:53.645Z,5.00
2022-09-20T03:12:22.643Z,5.82
2022-09-20T03:14:59.210Z,5.05
2022-09-20T03:17:42.312Z,5.30
2022-09-20T03:20:15.595Z,5.32
2022-09-20T03:23:00.687Z,6.22
2022-09-20T03:25:27.036Z,6.38
2022-09-20T03:27:56.341Z,4.75
2022-09-20T03:30:22.643Z,5.25
2022-09-20T03:32:59.035Z,4.68
2022-09-20T03:35:25.271Z,5.85
2022-09-20T03:38:11.780Z,4.88
2022-09-20T03:40:56.210Z,5.53
2022-09-20T03:43:41.119Z,5.03
2022-09-20T03:46:07.453Z,5.18
2022-09-20T03:48:43.220Z,5.55
2022-09-20T03:51:32.901Z,4.72
2022-09-20T03:54:31.272Z,4.68
2022-09-20T03:57:04.856Z,5.32
2022-09-20T03:59:46.624Z,4.13
2022-09-20T04:02:31.853Z,4.18
2022-09-20T04:05:05.038Z,4.85
2022-09-20T04:07:43.441Z,4.50
2022-09-20T04:10:18.622Z,5.10
2022-09-20T04:15:30.347Z,4.88
2022-09-20T04:18:14.702Z,4.63
2022-09-20T04:20:46.466Z,4.80
2022-09-20T04:23:21.988Z,4.68
2022-09-20T04:25:49.631Z,4.50
2022-09-20T04:28:24.938Z,4.30
2022-09-20T04:33:23.267Z,4.13
2022-09-20T04:36:27.107Z,4.68
2022-09-20T04:39:04.983Z,4.18
2022-09-20T04:41:54.068Z,4.50
2022-09-20T04:44:23.164Z,4.05
2022-09-20T04:46:52.759Z,4.20
2022-09-20T04:49:27.445Z,4.63
2022-09-20T04:52:04.141Z,3.90
2022-09-20T04:54:44.467Z,5.43
2022-09-20T04:57:29.647Z,5.03
2022-09-20T05:00:16.922Z,4.20
2022-09-20T05:02:52.278Z,4.70
2022-09-20T05:08:00.471Z,5.20
2022-09-20T05:10:29.833Z,5.20
2022-09-20T05:13:14.615Z,4.68
2022-09-20T05:15:59.439Z,4.30
2022-09-20T05:18:44.776Z,4.68
2022-09-20T05:21:14.043Z,5.25
2022-09-20T05:24:15.782Z,4.13
2022-09-20T05:27:00.800Z,4.32
2022-09-20T05:29:27.032Z,4.95
2022-09-20T05:31:58.756Z,5.25
2022-09-20T05:34:30.390Z,5.40
2022-09-20T05:36:59.513Z,5.30
2022-09-20T05:39:35.161Z,4.38
2022-09-20T05:42:09.508Z,5.50
2022-09-20T05:44:56.379Z,6.43
2022-09-20T05:47:31.591Z,6.00
2022-09-20T05:50:24.444Z,6.70
2022-09-20T05:52:53.917Z,7.20
2022-09-20T05:55:26.451Z,6.13
2022-09-20T05:58:01.490Z,7.30
2022-09-20T06:00:32.462Z,6.15
2022-09-20T06:03:04.686Z,6.63
2022-09-20T06:05:46.035Z,7.00
2022-09-20T06:08:12.259Z,7.43
2022-09-20T06:10:39.744Z,6.55
2022-09-20T06:13:33.495Z,6.15
2022-09-20T06:16:00.843Z,7.32
2022-09-20T06:18:33.301Z,7.57
2022-09-20T06:21:18.155Z,6.65
2022-09-20T06:23:44.463Z,6.78
2022-09-20T06:26:17.295Z,6.63
2022-09-20T06:28:49.048Z,5.78
2022-09-20T06:31:17.003Z,8.35
2022-09-20T06:33:53.190Z,7.18
2022-09-20T06:36:42.113Z,7.20
2022-09-20T06:39:27.090Z,6.85
2022-09-20T06:41:54.007Z,7.28
2022-09-20T06:44:20.297Z,6.93
2022-09-20T06:46:46.586Z,6.28
2022-09-20T06:49:12.846Z,6.50
2022-09-20T06:51:39.567Z,5.85
2022-09-20T06:54:07.247Z,6.15
2022-09-20T06:56:36.642Z,6.03
2022-09-20T06:59:03.619Z,6.97
2022-09-20T07:01:30.814Z,5.85
2022-09-20T07:03:57.760Z,6.38
2022-09-20T07:06:24.083Z,5.75
2022-09-20T07:08:50.350Z,7.15
2022-09-20T07:11:17.350Z,7.03
2022-09-20T07:13:43.987Z,6.30
2022-09-20T07:16:11.876Z,5.43
2022-09-20T07:18:38.172Z,6.80
2022-09-20T07:21:06.205Z,5.47
2022-09-20T07:23:32.475Z,5.57
2022-09-20T07:26:00.591Z,6.57
2022-09-20T07:28:27.574Z,5.35
2022-09-20T07:30:54.157Z,4.30
2022-09-20T07:33:21.589Z,4.07
2022-09-20T07:35:48.557Z,3.65
2022-09-20T07:38:15.582Z,4.25
2022-09-20T07:40:41.828Z,4.13
2022-09-20T07:43:08.234Z,4.15
2022-09-20T07:45:39.009Z,4.95
2022-09-20T07:48:07.134Z,4.32
2022-09-20T07:50:33.519Z,4.75
2022-09-20T07:52:59.930Z,3.95
2022-09-20T07:55:26.262Z,3.42
2022-09-20T07:57:54.226Z,5.72
2022-09-20T08:00:20.471Z,4.95
2022-09-20T08:02:46.771Z,3.38
2022-09-20T08:05:13.043Z,3.25
2022-09-20T08:07:39.403Z,4.00
2022-09-20T08:10:05.887Z,3.25
2022-09-20T08:15:19.432Z,3.17
2022-09-20T08:17:46.808Z,3.10
2022-09-20T08:20:13.158Z,3.38
2022-09-20T08:22:41.997Z,3.50
2022-09-20T08:25:08.540Z,3.60
2022-09-20T08:27:34.842Z,3.10
2022-09-20T08:30:01.174Z,3.85
2022-09-20T08:32:27.441Z,2.60
2022-09-20T08:34:53.701Z,4.57
2022-09-20T08:37:19.931Z,2.72
2022-09-20T08:40:01.423Z,2.30
2022-09-20T08:42:33.661Z,2.35
2022-09-20T08:45:03.513Z,3.10
2022-09-20T08:47:35.614Z,2.50
2022-09-20T08:50:17.333Z,2.47
2022-09-20T08:52:45.647Z,2.20
2022-09-20T08:55:19.838Z,2.63
2022-09-20T08:57:58.065Z,1.90
2022-09-20T09:00:26.264Z,2.90
2022-09-20T09:02:55.229Z,2.53
2022-09-20T09:05:32.174Z,1.98
2022-09-20T09:08:04.982Z,3.10
2022-09-20T09:10:42.552Z,2.72
2022-09-20T09:13:14.516Z,2.30
2022-09-20T09:15:41.750Z,2.63
2022-09-20T09:18:11.271Z,2.47
2022-09-20T09:20:42.243Z,4.50
2022-09-20T09:23:09.105Z,4.65
2022-09-20T09:25:39.452Z,2.22
2022-09-20T09:28:08.444Z,2.75
2022-09-20T09:30:36.635Z,2.03
2022-09-20T09:33:15.270Z,3.03
2022-09-20T09:35:41.723Z,2.78
2022-09-20T09:38:15.727Z,2.20
2022-09-20T09:40:48.587Z,2.20
2022-09-20T09:43:21.358Z,2.30
2022-09-20T09:45:47.760Z,2.75
2022-09-20T09:48:18.638Z,2.33
2022-09-20T09:50:44.905Z,2.42
2022-09-20T09:53:24.045Z,2.70
2022-09-20T09:55:57.978Z,2.58
2022-09-20T09:58:24.271Z,2.78
2022-09-20T10:00:52.008Z,2.38
2022-09-20T10:03:40.384Z,3.30
2022-09-20T10:06:23.296Z,2.20
2022-09-20T10:09:01.867Z,2.42
2022-09-20T10:11:37.904Z,2.40
2022-09-20T10:14:07.311Z,2.58
2022-09-20T10:16:52.935Z,2.60
2022-09-20T10:21:53.162Z,2.70
2022-09-20T10:24:30.210Z,2.80
2022-09-20T10:26:56.426Z,2.53
2022-09-20T10:29:29.416Z,2.97
2022-09-20T10:32:05.363Z,3.40
2022-09-20T10:34:31.860Z,2.80
2022-09-20T10:36:59.087Z,3.20
2022-09-20T10:39:28.644Z,2.10
2022-09-20T10:42:32.463Z,2.20
2022-09-20T10:45:06.822Z,3.05
2022-09-20T10:47:43.663Z,2.35
2022-09-20T10:50:26.068Z,2.50
2022-09-20T10:53:11.014Z,2.80
2022-09-20T10:55:37.230Z,3.40
2022-09-20T10:58:10.327Z,3.53
2022-09-20T11:00:52.674Z,2.40
2022-09-20T11:03:28.154Z,2.55
2022-09-20T11:06:04.846Z,2.53
2022-09-20T11:08:34.001Z,2.53
2022-09-20T11:11:00.463Z,2.30
2022-09-20T11:13:26.687Z,2.33
2022-09-20T11:16:11.595Z,3.35
2022-09-20T11:18:40.710Z,2.47
2022-09-20T11:21:11.610Z,3.28
2022-09-20T11:23:47.090Z,2.28
2022-09-20T11:26:18.113Z,2.35
2022-09-20T11:28:47.042Z,2.42
2022-09-20T11:31:29.921Z,2.90
2022-09-20T11:34:08.703Z,2.85
2022-09-20T11:36:57.499Z,2.50
2022-09-20T11:39:29.145Z,3.70
2022-09-20T11:41:56.353Z,2.40
2022-09-20T11:44:22.603Z,2.50
2022-09-20T11:47:10.864Z,2.42
2022-09-20T11:49:37.086Z,3.03
2022-09-20T11:52:03.418Z,2.42
2022-09-20T11:54:29.640Z,2.17
2022-09-20T11:56:56.647Z,2.53
2022-09-20T11:59:28.184Z,2.67
2022-09-20T12:01:56.537Z,1.95
2022-09-20T12:04:34.518Z,2.25
2022-09-20T12:07:17.854Z,2.72
2022-09-20T12:09:46.367Z,3.17
2022-09-20T12:12:32.107Z,2.75
2022-09-20T12:17:43.941Z,2.20
2022-09-20T12:20:28.958Z,2.28
2022-09-20T12:23:15.146Z,2.50
2022-09-20T12:26:00.375Z,2.97
2022-09-20T12:28:34.131Z,2.35
2022-09-20T12:31:18.881Z,2.03
2022-09-20T12:34:02.712Z,2.75
2022-09-20T12:36:31.003Z,2.22
2022-09-20T12:39:00.079Z,2.35
2022-09-20T12:41:28.945Z,4.05
2022-09-20T12:44:06.966Z,3.33
2022-09-20T12:46:54.916Z,5.00
2022-09-20T12:49:48.973Z,3.08
2022-09-20T12:52:47.373Z,2.58
2022-09-20T12:55:33.742Z,1.90
2022-09-20T12:58:05.069Z,1.70
2022-09-20T13:00:36.254Z,2.20
2022-09-20T13:03:14.861Z,2.10
2022-09-20T13:05:42.804Z,2.65
2022-09-20T13:08:13.220Z,2.17
2022-09-20T13:10:41.492Z,2.28
2022-09-20T13:13:16.279Z,2.70
2022-09-20T13:15:48.700Z,2.13
2022-09-20T13:18:15.463Z,1.90
2022-09-20T13:20:42.733Z,1.90
2022-09-20T13:23:14.426Z,2.10
2022-09-20T13:25:40.769Z,1.80
2022-09-20T13:28:09.162Z,2.42
2022-09-20T13:30:35.856Z,3.75
2022-09-20T13:33:21.939Z,3.03
2022-09-20T13:35:50.226Z,2.10
2022-09-20T13:38:22.314Z,2.15
2022-09-20T13:40:49.163Z,2.28
2022-09-20T13:43:28.154Z,1.95
2022-09-20T13:45:58.949Z,2.05
2022-09-20T13:48:29.138Z,2.40
2022-09-20T13:50:55.826Z,2.38
2022-09-20T13:53:40.164Z,2.83
2022-09-20T13:56:18.909Z,2.50
2022-09-20T13:58:45.274Z,2.40
2022-09-20T14:01:26.779Z,2.88
2022-09-20T14:03:54.129Z,2.30
2022-09-20T14:06:26.957Z,2.35
2022-09-20T14:08:53.218Z,2.00
2022-09-20T14:11:23.593Z,2.45
2022-09-20T14:13:51.757Z,2.25
2022-09-20T14:16:19.190Z,1.98
2022-09-20T14:18:47.952Z,2.47
2022-09-20T14:21:17.438Z,3.20
2022-09-20T14:23:53.986Z,2.05
2022-09-20T14:26:20.217Z,1.92
2022-09-20T14:28:46.704Z,2.60
2022-09-20T14:31:14.341Z,2.20
2022-09-20T14:33:42.028Z,4.35
2022-09-20T14:36:15.871Z,2.90
2022-09-20T14:38:46.730Z,2.13
2022-09-20T14:41:13.495Z,2.65
2022-09-20T14:43:40.223Z,2.75
2022-09-20T14:46:15.394Z,3.20
2022-09-20T14:51:08.212Z,2.70
2022-09-20T14:53:37.096Z,2.50
2022-09-20T14:56:06.449Z,2.13
2022-09-20T14:58:33.349Z,3.00
2022-09-20T15:01:01.824Z,3.33
2022-09-20T15:03:30.927Z,2.60
2022-09-20T15:05:57.243Z,3.10
2022-09-20T15:08:23.672Z,2.60
2022-09-20T15:10:50.081Z,2.92
2022-09-20T15:13:16.591Z,2.50
2022-09-20T15:15:44.357Z,2.20
2022-09-20T15:18:37.102Z,2.22
2022-09-20T15:21:03.991Z,2.38
2022-09-20T15:23:30.251Z,2.25
2022-09-20T15:25:56.874Z,2.40
2022-09-20T15:28:24.003Z,2.50
2022-09-20T15:30:51.275Z,2.65
2022-09-20T15:33:18.209Z,2.20
2022-09-20T15:35:44.892Z,3.20
2022-09-20T15:38:11.868Z,2.20
2022-09-20T15:40:38.834Z,3.05
2022-09-20T15:43:05.410Z,2.28
2022-09-20T15:45:31.719Z,2.67
2022-09-20T15:47:58.152Z,2.63
2022-09-20T15:50:24.564Z,3.20
2022-09-20T15:52:51.494Z,2.58
2022-09-20T15:55:21.669Z,2.80
2022-09-20T15:57:51.014Z,3.30
2022-09-20T16:00:20.223Z,2.78
2022-09-20T16:02:49.818Z,2.67
2022-09-20T16:05:16.277Z,2.47
2022-09-20T16:07:42.543Z,2.70
2022-09-20T16:10:09.019Z,2.67
2022-09-20T16:12:35.294Z,2.97
2022-09-20T16:15:01.570Z,2.60
2022-09-20T16:17:46.406Z,2.42
2022-09-20T16:20:12.651Z,4.00
2022-09-20T16:22:38.919Z,2.65
2022-09-20T16:25:06.521Z,2.53
2022-09-20T16:27:34.668Z,6.13
2022-09-20T16:30:01.888Z,4.03
2022-09-20T16:32:28.187Z,3.85
2022-09-20T16:34:54.866Z,2.80
2022-09-20T16:37:22.571Z,3.03
2022-09-20T16:39:48.818Z,2.33
2022-09-20T16:42:15.293Z,2.70
2022-09-20T16:44:42.661Z,2.40
2022-09-20T16:47:13.826Z,2.17
2022-09-20T16:49:40.127Z,3.53
2022-09-20T16:52:07.873Z,2.35
2022-09-20T16:54:34.459Z,2.65
2022-09-20T16:57:00.910Z,2.83
2022-09-20T16:59:27.273Z,2.22
2022-09-20T17:01:53.511Z,2.63
2022-09-20T17:04:20.946Z,2.65
2022-09-20T17:06:48.000Z,2.65
2022-09-20T17:09:14.815Z,3.15
2022-09-20T17:11:42.256Z,2.88
2022-09-20T17:14:09.577Z,2.53
2022-09-20T17:16:37.213Z,2.47
2022-09-20T17:19:07.311Z,2.58
2022-09-20T17:21:35.940Z,2.67
2022-09-20T17:24:03.659Z,2.78
2022-09-20T17:26:33.969Z,2.30
2022-09-20T17:29:01.953Z,3.08
2022-09-20T17:31:33.912Z,2.42
2022-09-20T17:34:01.153Z,2.90
2022-09-20T17:36:31.926Z,3.30
2022-09-20T17:39:03.857Z,2.65
2022-09-20T17:41:31.356Z,3.70
2022-09-20T17:43:58.316Z,3.53
2022-09-20T17:46:30.357Z,3.05
2022-09-20T17:48:58.020Z,3.80
2022-09-20T17:51:25.443Z,4.05
2022-09-20T17:53:52.863Z,3.00
2022-09-20T17:56:20.774Z,2.60
2022-09-20T17:58:47.278Z,3.45
2022-09-20T18:01:15.164Z,3.03
2022-09-20T18:03:42.681Z,3.47
2022-09-20T18:06:17.919Z,3.20
2022-09-20T18:08:48.206Z,3.28
2022-09-20T18:11:14.914Z,3.03
2022-09-20T18:13:41.179Z,3.00
2022-09-20T18:16:14.513Z,3.63
2022-09-20T18:18:41.528Z,3.70
2022-09-20T18:21:11.585Z,3.85
2022-09-20T18:23:37.949Z,2.70
2022-09-20T18:26:23.583Z,3.10
2022-09-20T18:28:52.938Z,2.85
2022-09-20T18:31:19.296Z,2.78
2022-09-20T18:33:45.650Z,3.70
2022-09-20T18:36:11.911Z,4.50
2022-09-20T18:38:38.838Z,4.55
2022-09-20T18:41:05.181Z,4.10
2022-09-20T18:43:31.536Z,4.47
2022-09-20T18:45:58.172Z,4.00
2022-09-20T18:48:32.520Z,4.63
2022-09-20T18:50:59.850Z,5.17
2022-09-20T18:53:27.403Z,4.35
2022-09-20T18:55:53.942Z,4.32
2022-09-20T18:58:20.883Z,5.35
2022-09-20T19:00:50.284Z,5.40
2022-09-20T19:03:19.246Z,5.53
2022-09-20T19:05:49.310Z,5.55
2022-09-20T19:08:34.795Z,5.07
2022-09-20T19:11:03.464Z,4.88
2022-09-20T19:13:42.869Z,5.90
2022-09-20T19:16:16.800Z,5.57
2022-09-20T19:18:44.293Z,5.60
2022-09-20T19:21:20.817Z,4.85
2022-09-20T19:24:05.800Z,4.72
2022-09-20T19:26:33.298Z,5.55
2022-09-20T19:29:00.133Z,5.22
2022-09-20T19:31:26.608Z,5.70
2022-09-20T19:33:56.587Z,5.70
2022-09-20T19:36:32.349Z,5.93
2022-09-20T19:39:17.144Z,5.32
2022-09-20T19:41:50.513Z,5.40
2022-09-20T19:44:29.171Z,4.47
2022-09-20T19:47:02.730Z,5.88
2022-09-20T19:49:41.659Z,6.22
2022-09-20T19:52:10.354Z,6.80
2022-09-20T19:54:38.273Z,6.32
2022-09-20T19:57:06.808Z,6.65
2022-09-20T19:59:33.394Z,6.65
2022-09-20T20:01:59.845Z,5.90
2022-09-20T20:04:26.304Z,6.53
2022-09-20T20:07:08.530Z,7.32
2022-09-20T20:09:41.235Z,6.28
2022-09-20T20:12:14.770Z,7.32
2022-09-20T20:14:44.051Z,6.57
2022-09-20T20:17:29.290Z,5.97
2022-09-20T20:20:05.497Z,5.68
2022-09-20T20:22:51.132Z,5.85
2022-09-20T20:25:28.304Z,5.07
2022-09-20T20:27:54.556Z,5.25
2022-09-20T20:30:20.822Z,5.47
2022-09-20T20:32:47.533Z,5.47
2022-09-20T20:35:15.045Z,5.53
2022-09-20T20:37:41.318Z,5.70
2022-09-20T20:40:12.093Z,5.22
2022-09-20T20:42:38.451Z,6.03
2022-09-20T20:45:05.845Z,5.90
2022-09-20T20:47:33.099Z,4.97
2022-09-20T20:49:59.393Z,5.30
2022-09-20T20:52:25.648Z,6.80
2022-09-20T20:54:52.214Z,5.97
2022-09-20T20:57:18.957Z,6.55
2022-09-20T20:59:45.486Z,5.97
2022-09-20T21:02:11.762Z,6.35
2022-09-20T21:04:39.893Z,6.70
2022-09-20T21:07:06.177Z,5.55
2022-09-20T21:09:32.427Z,6.28
2022-09-20T21:11:58.682Z,6.43
2022-09-20T21:14:24.978Z,5.72
2022-09-20T21:16:51.685Z,5.40
2022-09-20T21:19:18.807Z,4.82
2022-09-20T21:21:47.094Z,4.75
2022-09-20T21:24:15.240Z,4.40
2022-09-20T21:26:41.533Z,5.30
2022-09-20T21:29:10.542Z,5.28
2022-09-20T21:31:38.104Z,5.35
2022-09-20T21:34:05.885Z,5.30
2022-09-20T21:36:32.643Z,5.68
2022-09-20T21:38:58.900Z,4.97
2022-09-20T21:41:32.443Z,5.07
2022-09-20T21:44:00.135Z,5.20
2022-09-20T21:46:37.007Z,5.57
2022-09-20T21:49:04.191Z,5.60
2022-09-20T21:51:30.919Z,5.45
2022-09-20T21:53:58.133Z,5.60
2022-09-20T21:56:26.180Z,6.38
2022-09-20T21:58:52.543Z,6.05
2022-09-20T22:01:21.210Z,5.47
2022-09-20T22:03:48.774Z,5.28
2022-09-20T22:06:15.019Z,5.80
2022-09-20T22:08:42.916Z,5.68
2022-09-20T22:11:13.503Z,5.05
2022-09-20T22:13:42.199Z,5.07
2022-09-20T22:16:16.141Z,5.78
2022-09-20T22:18:43.385Z,5.10
2022-09-20T22:21:11.429Z,5.68
2022-09-20T22:23:38.107Z,5.90
2022-09-20T22:26:06.289Z,4.72
2022-09-20T22:28:32.956Z,5.45
2022-09-20T22:31:07.213Z,5.22
2022-09-20T22:33:33.809Z,5.35
2022-09-20T22:36:01.175Z,4.53
2022-09-20T22:38:30.707Z,4.85
2022-09-20T22:40:57.840Z,3.97
2022-09-20T22:43:24.303Z,4.60
2022-09-20T22:45:50.782Z,4.43
2022-09-20T22:48:17.295Z,5.13
2022-09-20T22:50:43.743Z,4.95
2022-09-20T22:53:10.256Z,5.15
2022-09-20T22:55:36.767Z,4.93
2022-09-20T22:58:03.286Z,4.95
2022-09-20T23:00:29.677Z,5.03
2022-09-20T23:02:57.736Z,4.25
2022-09-20T23:05:24.440Z,4.30
2022-09-20T23:07:50.952Z,4.45
2022-09-20T23:10:17.305Z,4.18
2022-09-20T23:12:43.684Z,5.10
2022-09-20T23:15:11.691Z,4.85
2022-09-20T23:17:40.629Z,4.60
2022-09-20T23:20:07.318Z,4.70
2022-09-20T23:22:33.769Z,4.00
2022-09-20T23:25:00.274Z,4.00
2022-09-20T23:27:26.632Z,4.10
2022-09-20T23:29:53.018Z,4.40
2022-09-20T23:32:19.375Z,3.63
2022-09-20T23:34:45.824Z,4.93
2022-09-20T23:37:12.780Z,4.32
2022-09-20T23:39:39.563Z,4.28
2022-09-20T23:42:06.596Z,4.05
2022-09-20T23:44:33.012Z,4.57
2022-09-20T23:46:59.545Z,3.90
2022-09-20T23:49:26.040Z,5.40
2022-09-20T23:51:52.430Z,3.65
2022-09-20T23:54:19.028Z,3.50
2022-09-20T23:56:46.197Z,4.05
2022-09-20T23:59:12.583Z,3.55
